Time,TemperatureF,DewpointF,PressureIn,WindDirection,WindDirectionDegrees,WindSpeedMPH,WindSpeedGustMPH,Humidity,HourlyPrecipIn,Conditions,Clouds,dailyrainin,SoftwareType,DateUTC
2013-11-15 00:14:00,65.2,39.0,29.76,WSW,243,1.0,4.0,38,0.00,,,0.00,weatherlink.com 1.10,2013-11-15 07:14:00,
2013-11-15 00:29:00,66.8,39.0,29.76,SW,229,3.0,5.0,36,0.00,,,0.00,weatherlink.com 1.10,2013-11-15 07:29:00,
2013-11-15 00:44:00,66.2,38.0,29.75,WSW,256,2.0,3.0,36,0.00,,,0.00,weatherlink.com 1.10,2013-11-15 07:44:00,
2013-11-15 00:59:00,66.1,38.0,29.75,WSW,253,3.0,4.0,35,0.00,,,0.00,weatherlink.com 1.10,2013-11-15 07:59:00,
2013-11-15 01:14:00,67.1,38.0,29.75,WSW,250,0.0,4.0,34,0.00,,,0.00,weatherlink.com 1.10,2013-11-15 08:14:00,
2013-11-15 01:29:00,66.3,38.0,29.75,West,266,1.0,3.0,35,0.00,,,0.00,weatherlink.com 1.10,2013-11-15 08:29:00,
2013-11-15 01:44:00,66.3,38.0,29.75,WSW,243,3.0,3.0,35,0.00,,,0.00,weatherlink.com 1.10,2013-11-15 08:44:00,
2013-11-15 01:59:00,66.3,38.0,29.74,WSW,248,3.0,4.0,35,0.00,,,0.00,weatherlink.com 1.10,2013-11-15 08:59:00,
2013-11-15 02:14:00,66.3,37.0,29.74,SW,228,2.0,4.0,34,0.00,,,0.00,weatherlink.com 1.10,2013-11-15 09:14:00,
2013-11-15 02:29:00,66.3,37.0,29.74,SW,235,1.0,2.0,34,0.00,,,0.00,weatherlink.com 1.10,2013-11-15 09:29:00,
2013-11-15 02:44:00,66.7,37.0,29.74,SW,229,4.0,4.0,34,0.00,,,0.00,weatherlink.com 1.10,2013-11-15 09:44:00,
2013-11-15 02:59:00,66.9,40.0,29.73,SW,229,2.0,5.0,37,0.00,,,0.00,weatherlink.com 1.10,2013-11-15 09:59:00,
2013-11-15 03:14:00,66.4,39.0,29.73,SSE,167,0.0,3.0,37,0.00,,,0.00,weatherlink.com 1.10,2013-11-15 10:14:00,
2013-11-15 03:29:00,63.5,37.0,29.72,South,172,5.0,9.0,37,0.00,,,0.00,weatherlink.com 1.10,2013-11-15 10:29:00,
2013-11-15 03:44:00,63.0,37.0,29.72,South,169,3.0,6.0,39,0.00,,,0.00,weatherlink.com 1.10,2013-11-15 10:44:00,
2013-11-15 03:59:00,62.8,39.0,29.72,South,188,0.0,6.0,41,0.00,,,0.00,weatherlink.com 1.10,2013-11-15 10:59:00,
2013-11-15 04:14:00,62.1,39.0,29.72,SE,136,0.0,2.0,43,0.00,,,0.00,weatherlink.com 1.10,2013-11-15 11:14:00,
2013-11-15 04:29:00,62.1,40.0,29.71,SE,140,0.0,1.0,44,0.00,,,0.00,weatherlink.com 1.10,2013-11-15 11:29:00,
2013-11-15 04:44:00,62.5,41.0,29.71,SE,139,1.0,4.0,45,0.00,,,0.00,weatherlink.com 1.10,2013-11-15 11:44:00,
2013-11-15 04:59:00,63.0,42.0,29.71,SSE,160,1.0,2.0,47,0.00,,,0.00,weatherlink.com 1.10,2013-11-15 11:59:00,
2013-11-15 05:14:00,64.2,44.0,29.71,SE,139,2.0,5.0,48,0.00,,,0.00,weatherlink.com 1.10,2013-11-15 12:14:00,
2013-11-15 05:29:00,63.3,41.0,29.71,SSE,153,0.0,5.0,44,0.00,,,0.00,weatherlink.com 1.10,2013-11-15 12:29:00,
2013-11-15 05:44:00,61.7,40.0,29.71,SE,127,3.0,6.0,45,0.00,,,0.00,weatherlink.com 1.10,2013-11-15 12:44:00,
2013-11-15 05:59:00,62.1,43.0,29.71,SSE,159,4.0,6.0,49,0.00,,,0.00,weatherlink.com 1.10,2013-11-15 12:59:00,
2013-11-15 06:14:00,65.2,46.0,29.71,SSE,149,8.0,9.0,51,0.00,,,0.00,weatherlink.com 1.10,2013-11-15 13:14:00,
2013-11-15 06:29:00,66.2,47.0,29.71,SE,140,7.0,12.0,50,0.00,,,0.00,weatherlink.com 1.10,2013-11-15 13:29:00,
2013-11-15 06:44:00,66.4,48.0,29.70,SSE,160,10.0,13.0,51,0.00,,,0.00,weatherlink.com 1.10,2013-11-15 13:44:00,
2013-11-15 06:59:00,66.3,47.0,29.71,South,169,11.0,11.0,51,0.00,,,0.00,weatherlink.com 1.10,2013-11-15 13:59:00,
2013-11-15 07:14:00,66.2,47.0,29.71,SSW,193,6.0,10.0,51,0.00,,,0.00,weatherlink.com 1.10,2013-11-15 14:14:00,
2013-11-15 07:29:00,66.3,47.0,29.71,SSE,150,6.0,11.0,50,0.00,,,0.00,weatherlink.com 1.10,2013-11-15 14:29:00,
2013-11-15 07:44:00,66.2,47.0,29.71,South,171,2.0,10.0,51,0.00,,,0.00,weatherlink.com 1.10,2013-11-15 14:44:00,
2013-11-15 07:59:00,66.5,47.0,29.72,South,172,3.0,8.0,50,0.00,,,0.00,weatherlink.com 1.10,2013-11-15 14:59:00,
2013-11-15 08:15:00,66.7,47.0,29.72,SSW,212,5.0,9.0,50,0.00,,,0.00,weatherlink.com 1.10,2013-11-15 15:15:00,
2013-11-15 08:30:00,67.1,47.0,29.72,SSE,165,4.0,12.0,49,0.00,,,0.00,weatherlink.com 1.10,2013-11-15 15:30:00,
2013-11-15 08:45:00,67.4,47.0,29.72,SE,124,7.0,13.0,48,0.00,,,0.00,weatherlink.com 1.10,2013-11-15 15:45:00,
2013-11-15 09:00:00,67.8,47.0,29.72,SW,221,7.0,15.0,48,0.00,,,0.00,weatherlink.com 1.10,2013-11-15 16:00:00,
2013-11-15 09:15:00,68.1,47.0,29.72,SSE,163,10.0,13.0,47,0.00,,,0.00,weatherlink.com 1.10,2013-11-15 16:15:00,
2013-11-15 09:30:00,68.4,47.0,29.72,SSE,166,8.0,14.0,46,0.00,,,0.00,weatherlink.com 1.10,2013-11-15 16:30:00,
2013-11-15 09:45:00,68.7,47.0,29.72,SSE,168,5.0,11.0,46,0.00,,,0.00,weatherlink.com 1.10,2013-11-15 16:45:00,
2013-11-15 10:00:00,68.7,47.0,29.72,South,181,6.0,11.0,46,0.00,,,0.00,weatherlink.com 1.10,2013-11-15 17:00:00,
2013-11-15 10:15:00,68.9,47.0,29.71,South,176,9.0,14.0,46,0.00,,,0.00,weatherlink.com 1.10,2013-11-15 17:15:00,
2013-11-15 10:30:00,69.2,47.0,29.69,SE,143,6.0,17.0,45,0.00,,,0.00,weatherlink.com 1.10,2013-11-15 17:30:00,
2013-11-15 10:45:00,70.0,47.0,29.70,WSW,250,11.0,15.0,44,0.00,,,0.00,weatherlink.com 1.10,2013-11-15 17:45:00,
2013-11-15 11:01:00,70.3,47.0,29.69,SSE,162,11.0,13.0,44,0.00,,,0.00,weatherlink.com 1.10,2013-11-15 18:01:00,
2013-11-15 11:15:00,70.8,47.0,29.69,South,174,6.0,11.0,43,0.00,,,0.00,weatherlink.com 1.10,2013-11-15 18:15:00,
2013-11-15 11:30:00,71.1,47.0,29.68,South,174,6.0,14.0,42,0.00,,,0.00,weatherlink.com 1.10,2013-11-15 18:30:00,
2013-11-15 11:45:00,71.6,47.0,29.68,SE,141,9.0,12.0,42,0.00,,,0.00,weatherlink.com 1.10,2013-11-15 18:45:00,
2013-11-15 12:00:00,71.8,47.0,29.67,SSE,150,4.0,12.0,42,0.00,,,0.00,weatherlink.com 1.10,2013-11-15 19:00:00,
2013-11-15 12:15:00,72.1,47.0,29.66,SW,225,5.0,15.0,41,0.00,,,0.00,weatherlink.com 1.10,2013-11-15 19:15:00,
2013-11-15 12:30:00,72.0,48.0,29.65,SSE,167,3.0,12.0,42,0.00,,,0.00,weatherlink.com 1.10,2013-11-15 19:30:00,
2013-11-15 12:45:00,71.8,48.0,29.64,SSE,155,9.0,12.0,43,0.00,,,0.00,weatherlink.com 1.10,2013-11-15 19:45:00,
2013-11-15 13:00:00,71.9,48.0,29.63,SSE,158,7.0,12.0,43,0.00,,,0.00,weatherlink.com 1.10,2013-11-15 20:00:00,
2013-11-15 13:15:00,72.0,48.0,29.62,SW,221,5.0,13.0,42,0.00,,,0.00,weatherlink.com 1.10,2013-11-15 20:15:00,
2013-11-15 13:30:00,72.3,48.0,29.61,SSE,150,5.0,10.0,42,0.00,,,0.00,weatherlink.com 1.10,2013-11-15 20:30:00,
2013-11-15 13:44:00,72.4,48.0,29.60,ESE,122,6.0,9.0,42,0.00,,,0.00,weatherlink.com 1.10,2013-11-15 20:44:00,
2013-11-15 14:00:00,72.5,48.0,29.59,SW,225,5.0,20.0,42,0.00,,,0.00,weatherlink.com 1.10,2013-11-15 21:00:00,
2013-11-15 14:15:00,72.7,48.0,29.58,SSE,147,4.0,9.0,41,0.00,,,0.00,weatherlink.com 1.10,2013-11-15 21:15:00,
2013-11-15 14:30:00,73.0,47.0,29.57,SSW,203,9.0,19.0,39,0.00,,,0.00,weatherlink.com 1.10,2013-11-15 21:30:00,
2013-11-15 14:45:00,74.0,45.0,29.56,WSW,245,10.0,15.0,36,0.00,,,0.00,weatherlink.com 1.10,2013-11-15 21:45:00,
2013-11-15 15:00:00,74.0,46.0,29.55,SW,215,1.0,23.0,37,0.00,,,0.00,weatherlink.com 1.10,2013-11-15 22:00:00,
2013-11-15 15:16:00,74.6,46.0,29.55,South,169,4.0,18.0,36,0.00,,,0.00,weatherlink.com 1.10,2013-11-15 22:16:00,
2013-11-15 15:31:00,74.0,45.0,29.55,South,173,8.0,21.0,35,0.00,,,0.00,weatherlink.com 1.10,2013-11-15 22:31:00,
2013-11-15 15:46:00,73.8,44.0,29.55,SSE,154,7.0,15.0,35,0.00,,,0.00,weatherlink.com 1.10,2013-11-15 22:46:00,
2013-11-15 16:01:00,74.4,43.0,29.55,West,259,12.0,20.0,33,0.00,,,0.00,weatherlink.com 1.10,2013-11-15 23:01:00,
2013-11-15 16:16:00,74.1,43.0,29.55,ENE,72,6.0,17.0,33,0.00,,,0.00,weatherlink.com 1.10,2013-11-15 23:16:00,
2013-11-15 16:31:00,73.3,42.0,29.55,SSW,205,8.0,27.0,33,0.00,,,0.00,weatherlink.com 1.10,2013-11-15 23:31:00,
2013-11-15 16:46:00,73.0,44.0,29.55,WSW,240,9.0,25.0,35,0.00,,,0.00,weatherlink.com 1.10,2013-11-15 23:46:00,
2013-11-15 17:01:00,71.7,45.0,29.55,WNW,287,4.0,18.0,39,0.00,,,0.00,weatherlink.com 1.10,2013-11-16 00:01:00,
2013-11-15 17:16:00,71.1,45.0,29.55,North,5,3.0,16.0,39,0.00,,,0.00,weatherlink.com 1.10,2013-11-16 00:16:00,
2013-11-15 17:31:00,70.8,46.0,29.55,WSW,240,9.0,15.0,41,0.00,,,0.00,weatherlink.com 1.10,2013-11-16 00:31:00,
2013-11-15 17:46:00,70.4,46.0,29.55,SW,227,7.0,14.0,42,0.00,,,0.00,weatherlink.com 1.10,2013-11-16 00:46:00,
2013-11-15 18:01:00,69.8,47.0,29.55,SW,231,2.0,11.0,45,0.00,,,0.00,weatherlink.com 1.10,2013-11-16 01:01:00,
2013-11-15 18:16:00,69.4,48.0,29.55,SSE,166,3.0,14.0,47,0.00,,,0.00,weatherlink.com 1.10,2013-11-16 01:16:00,
2013-11-15 18:31:00,69.2,50.0,29.56,South,186,9.0,10.0,51,0.00,,,0.00,weatherlink.com 1.10,2013-11-16 01:31:00,
2013-11-15 18:46:00,68.9,50.0,29.56,SW,228,5.0,15.0,52,0.00,,,0.00,weatherlink.com 1.10,2013-11-16 01:46:00,
2013-11-15 19:01:00,68.4,51.0,29.57,SSW,204,2.0,14.0,55,0.00,,,0.00,weatherlink.com 1.10,2013-11-16 02:01:00,
2013-11-15 19:16:00,68.2,52.0,29.58,SSW,205,2.0,14.0,57,0.00,,,0.00,weatherlink.com 1.10,2013-11-16 02:16:00,
2013-11-15 19:31:00,67.9,52.0,29.58,SSW,211,1.0,9.0,58,0.00,,,0.00,weatherlink.com 1.10,2013-11-16 02:31:00,
2013-11-15 19:46:00,67.4,52.0,29.58,SSE,157,0.0,9.0,58,0.00,,,0.00,weatherlink.com 1.10,2013-11-16 02:46:00,
2013-11-15 20:01:00,66.9,52.0,29.58,SSE,150,12.0,12.0,59,0.00,,,0.00,weatherlink.com 1.10,2013-11-16 03:01:00,
2013-11-15 20:16:00,66.7,53.0,29.59,East,86,3.0,17.0,61,0.00,,,0.00,weatherlink.com 1.10,2013-11-16 03:16:00,
2013-11-15 20:31:00,66.5,53.0,29.59,SE,127,3.0,14.0,63,0.00,,,0.00,weatherlink.com 1.10,2013-11-16 03:31:00,
2013-11-15 20:46:00,66.2,54.0,29.60,WNW,303,5.0,14.0,64,0.00,,,0.00,weatherlink.com 1.10,2013-11-16 03:46:00,
2013-11-15 21:01:00,65.9,54.0,29.60,WSW,240,3.0,10.0,65,0.00,,,0.00,weatherlink.com 1.10,2013-11-16 04:01:00,
2013-11-15 21:16:00,65.9,54.0,29.60,South,188,6.0,12.0,66,0.00,,,0.00,weatherlink.com 1.10,2013-11-16 04:16:00,
2013-11-15 21:31:00,65.8,54.0,29.61,SW,221,10.0,16.0,65,0.00,,,0.00,weatherlink.com 1.10,2013-11-16 04:31:00,
2013-11-15 21:46:00,65.7,54.0,29.61,SW,224,3.0,13.0,66,0.00,,,0.00,weatherlink.com 1.10,2013-11-16 04:46:00,
2013-11-15 22:01:00,65.8,52.0,29.62,West,259,7.0,12.0,62,0.00,,,0.00,weatherlink.com 1.10,2013-11-16 05:01:00,
2013-11-15 22:16:00,65.7,52.0,29.62,WSW,240,3.0,13.0,62,0.00,,,0.00,weatherlink.com 1.10,2013-11-16 05:16:00,
2013-11-15 22:31:00,65.5,52.0,29.62,SSW,202,4.0,20.0,62,0.00,,,0.00,weatherlink.com 1.10,2013-11-16 05:31:00,
2013-11-15 22:46:00,65.0,52.0,29.61,West,271,6.0,19.0,62,0.00,,,0.00,weatherlink.com 1.10,2013-11-16 05:46:00,
2013-11-15 23:01:00,64.7,52.0,29.62,SW,225,2.0,20.0,63,0.00,,,0.00,weatherlink.com 1.10,2013-11-16 06:01:00,
2013-11-15 23:16:00,64.4,51.0,29.62,SW,232,9.0,11.0,63,0.00,,,0.00,weatherlink.com 1.10,2013-11-16 06:16:00,
2013-11-15 23:31:00,64.3,51.0,29.62,SW,214,2.0,13.0,63,0.00,,,0.00,weatherlink.com 1.10,2013-11-16 06:31:00,
2013-11-15 23:46:00,64.2,51.0,29.63,SE,134,4.0,14.0,63,0.00,,,0.00,weatherlink.com 1.10,2013-11-16 06:46:00,